createdAt,value
2019-04-06T00:00:56.402Z,28.27
2019-04-06T00:03:23.726Z,27.40
2019-04-06T00:05:51.047Z,29.72
2019-04-06T00:08:18.342Z,29.98
2019-04-06T00:10:45.649Z,31.00
2019-04-06T00:13:12.974Z,29.82
2019-04-06T00:15:40.269Z,30.62
2019-04-06T00:18:07.558Z,31.42
2019-04-06T00:20:34.883Z,30.97
2019-04-06T00:23:02.167Z,32.95
2019-04-06T00:25:29.478Z,29.87
2019-04-06T00:27:56.774Z,32.00
2019-04-06T00:30:24.133Z,31.12
2019-04-06T00:32:53.097Z,31.68
2019-04-06T00:35:20.386Z,32.35
2019-04-06T00:37:47.712Z,30.68
2019-04-06T00:40:15.014Z,32.63
2019-04-06T00:42:42.305Z,30.50
2019-04-06T00:45:09.629Z,29.10
2019-04-06T00:47:36.932Z,30.92
2019-04-06T00:50:05.588Z,31.62
2019-04-06T00:52:32.905Z,33.28
2019-04-06T00:55:00.216Z,30.48
2019-04-06T00:57:27.518Z,31.70
2019-04-06T00:59:54.828Z,34.85
2019-04-06T01:02:22.153Z,33.18
2019-04-06T01:04:49.441Z,28.57
2019-04-06T01:07:16.770Z,32.15
2019-04-06T01:09:44.054Z,31.97
2019-04-06T01:12:11.437Z,32.60
2019-04-06T01:14:38.804Z,32.17
2019-04-06T01:17:06.099Z,32.80
2019-04-06T01:19:33.428Z,35.05
2019-04-06T01:22:00.797Z,34.73
2019-04-06T01:24:28.043Z,34.73
2019-04-06T01:26:55.356Z,35.13
2019-04-06T01:29:22.665Z,36.28
2019-04-06T01:31:49.967Z,31.93
2019-04-06T01:34:17.283Z,32.40
2019-04-06T01:36:44.578Z,32.05
2019-04-06T01:39:11.909Z,31.02
2019-04-06T01:41:39.194Z,31.65
2019-04-06T01:44:06.527Z,31.30
2019-04-06T01:46:33.839Z,33.25
2019-04-06T01:49:01.142Z,31.15
2019-04-06T01:51:28.451Z,30.15
2019-04-06T01:53:55.750Z,32.53
2019-04-06T01:56:23.078Z,32.83
2019-04-06T01:58:50.368Z,32.55
2019-04-06T02:01:34.466Z,29.40
2019-04-06T02:04:01.771Z,32.78
2019-04-06T02:06:29.107Z,30.25
2019-04-06T02:08:56.406Z,33.88
2019-04-06T02:11:23.747Z,32.20
2019-04-06T02:13:51.076Z,31.73
2019-04-06T02:16:18.411Z,32.03
2019-04-06T02:18:45.704Z,29.10
2019-04-06T02:21:13.042Z,33.45
2019-04-06T02:23:40.341Z,32.42
2019-04-06T02:26:07.640Z,32.95
2019-04-06T02:28:34.954Z,32.48
2019-04-06T02:31:06.852Z,31.68
2019-04-06T02:33:53.873Z,31.82
2019-04-06T02:36:22.821Z,32.65
2019-04-06T02:38:57.860Z,31.85
2019-04-06T02:41:32.325Z,31.45
2019-04-06T02:43:59.638Z,33.48
2019-04-06T02:46:26.934Z,30.45
2019-04-06T02:48:54.252Z,32.30
2019-04-06T02:51:21.560Z,30.60
2019-04-06T02:53:48.846Z,31.50
2019-04-06T02:56:16.185Z,33.08
2019-04-06T02:58:43.484Z,31.05
2019-04-06T03:01:10.849Z,32.10
2019-04-06T03:03:38.203Z,34.45
2019-04-06T03:06:05.507Z,33.05
2019-04-06T03:08:32.811Z,32.95
2019-04-06T03:11:00.120Z,36.83
2019-04-06T03:13:27.430Z,37.08
2019-04-06T03:15:54.734Z,37.42
2019-04-06T03:18:22.286Z,37.30
2019-04-06T03:20:49.655Z,36.10
2019-04-06T03:23:17.027Z,32.83
2019-04-06T03:25:44.531Z,37.40
2019-04-06T03:28:11.871Z,35.48
2019-04-06T03:30:39.139Z,37.85
2019-04-06T03:33:06.519Z,37.88
2019-04-06T03:35:33.889Z,38.63
2019-04-06T03:38:01.179Z,43.78
2019-04-06T03:40:28.475Z,42.10
2019-04-06T03:42:55.791Z,41.08
2019-04-06T03:45:23.082Z,38.88
2019-04-06T03:47:50.407Z,38.92
2019-04-06T03:50:17.700Z,35.88
2019-04-06T03:52:45.092Z,38.58
2019-04-06T03:55:12.407Z,38.17
2019-04-06T03:57:39.717Z,38.10
2019-04-06T04:00:07.476Z,37.38
2019-04-06T04:02:34.789Z,39.80
2019-04-06T04:05:02.098Z,44.73
2019-04-06T04:07:29.418Z,41.85
2019-04-06T04:09:56.709Z,38.73
2019-04-06T04:12:24.042Z,37.88
2019-04-06T04:14:51.501Z,39.27
2019-04-06T04:17:18.734Z,38.20
2019-04-06T04:19:46.061Z,38.75
2019-04-06T04:22:13.510Z,38.30
2019-04-06T04:24:40.878Z,38.73
2019-04-06T04:27:08.359Z,44.40
2019-04-06T04:29:35.701Z,41.05
2019-04-06T04:32:02.981Z,39.70
2019-04-06T04:34:30.291Z,34.70
2019-04-06T04:36:57.894Z,33.67
2019-04-06T04:39:25.172Z,34.15
2019-04-06T04:41:52.724Z,34.55
2019-04-06T04:44:20.051Z,35.15
2019-04-06T04:46:47.472Z,31.62
2019-04-06T04:49:14.704Z,32.03
2019-04-06T04:51:42.035Z,34.15
2019-04-06T04:54:09.359Z,31.37
2019-04-06T04:56:36.657Z,28.65
2019-04-06T04:59:04.023Z,35.13
2019-04-06T05:01:31.334Z,32.05
2019-04-06T05:03:58.893Z,34.60
2019-04-06T05:06:26.211Z,30.72
2019-04-06T05:08:53.680Z,30.52
2019-04-06T05:11:20.960Z,30.88
2019-04-06T05:13:48.243Z,33.30
2019-04-06T05:16:15.788Z,31.93
2019-04-06T05:18:43.209Z,30.00
2019-04-06T05:21:10.669Z,26.30
2019-04-06T05:23:40.249Z,24.57
2019-04-06T05:26:07.290Z,26.95
2019-04-06T05:28:34.990Z,27.48
2019-04-06T05:31:02.464Z,30.00
2019-04-06T05:33:29.762Z,34.55
2019-04-06T05:35:57.548Z,28.77
2019-04-06T05:38:24.882Z,26.40
2019-04-06T05:40:52.207Z,30.52
2019-04-06T05:43:19.509Z,32.75
2019-04-06T05:45:47.055Z,27.37
2019-04-06T05:48:14.464Z,28.60
2019-04-06T05:50:41.884Z,26.50
2019-04-06T05:53:09.189Z,26.00
2019-04-06T05:55:36.491Z,28.62
2019-04-06T05:58:04.849Z,26.10
2019-04-06T06:00:33.388Z,24.63
2019-04-06T06:03:00.760Z,24.25
2019-04-06T06:05:28.001Z,24.12
2019-04-06T06:07:55.317Z,23.32
2019-04-06T06:10:22.625Z,21.52
2019-04-06T06:12:49.918Z,25.77
2019-04-06T06:15:17.412Z,23.65
2019-04-06T06:17:44.763Z,24.32
2019-04-06T06:20:12.087Z,26.35
2019-04-06T06:22:39.450Z,25.85
2019-04-06T06:25:07.451Z,26.07
2019-04-06T06:27:34.806Z,27.27
2019-04-06T06:30:02.177Z,28.20
2019-04-06T06:32:31.260Z,28.50
2019-04-06T06:34:58.388Z,25.77
2019-04-06T06:37:25.726Z,27.85
2019-04-06T06:39:53.039Z,26.30
2019-04-06T06:42:20.347Z,23.92
2019-04-06T06:44:47.695Z,21.15
2019-04-06T06:47:14.999Z,20.95
2019-04-06T06:49:42.310Z,22.15
2019-04-06T06:52:09.626Z,22.58
2019-04-06T06:54:36.972Z,21.50
2019-04-06T06:57:04.300Z,19.55
2019-04-06T06:59:31.620Z,18.62
2019-04-06T07:01:59.003Z,21.23
2019-04-06T07:04:26.550Z,19.57
2019-04-06T07:06:53.878Z,20.08
2019-04-06T07:09:21.173Z,16.48
2019-04-06T07:11:48.492Z,16.90
2019-04-06T07:14:15.861Z,17.37
2019-04-06T07:16:43.375Z,15.63
2019-04-06T07:19:10.704Z,17.05
2019-04-06T07:21:38.037Z,16.75
2019-04-06T07:24:05.338Z,19.67
2019-04-06T07:26:32.656Z,21.70
2019-04-06T07:29:00.125Z,16.67
2019-04-06T07:31:27.501Z,15.50
2019-04-06T07:33:54.852Z,17.52
2019-04-06T07:36:22.238Z,17.10
2019-04-06T07:38:49.564Z,14.75
2019-04-06T07:41:16.888Z,16.40
2019-04-06T07:43:44.216Z,16.80
2019-04-06T07:46:11.517Z,18.02
2019-04-06T07:48:38.898Z,16.90
2019-04-06T07:51:06.126Z,17.45
2019-04-06T07:53:33.422Z,16.45
2019-04-06T07:56:00.723Z,17.50
2019-04-06T07:58:28.045Z,17.25
2019-04-06T08:00:55.329Z,16.62
2019-04-06T08:03:22.711Z,15.55
2019-04-06T08:05:50.014Z,15.68
2019-04-06T08:08:17.332Z,16.12
2019-04-06T08:10:44.854Z,18.02
2019-04-06T08:15:38.794Z,16.45
2019-04-06T09:04:33.188Z,18.10
2019-04-06T09:07:00.608Z,17.37
2019-04-06T09:09:27.882Z,17.00
2019-04-06T09:51:09.613Z,11.18
2019-04-06T10:30:14.598Z,12.15
2019-04-06T10:32:43.564Z,16.55
2019-04-06T10:35:18.609Z,11.83
2019-04-06T10:37:56.355Z,11.55
2019-04-06T10:40:34.122Z,24.30
2019-04-06T10:43:03.110Z,14.35
2019-04-06T10:45:34.970Z,25.55
2019-04-06T10:48:03.916Z,12.35
2019-04-06T10:50:32.943Z,21.62
2019-04-06T10:53:18.556Z,14.13
2019-04-06T10:55:53.260Z,15.43
2019-04-06T10:58:38.684Z,21.10
2019-04-06T11:01:19.523Z,14.60
2019-04-06T11:03:51.255Z,13.62
2019-04-06T11:06:22.884Z,21.50
2019-04-06T11:09:00.766Z,16.60
2019-04-06T11:11:46.093Z,19.85
2019-04-06T11:14:31.272Z,13.95
2019-04-06T11:17:12.013Z,13.03
2019-04-06T11:19:47.172Z,16.12
2019-04-06T11:22:17.209Z,13.40
2019-04-06T11:25:01.611Z,13.58
2019-04-06T11:27:46.788Z,16.17
2019-04-06T11:30:18.709Z,16.87
2019-04-06T11:33:03.978Z,17.10
2019-04-06T11:35:49.606Z,14.07
2019-04-06T11:38:21.314Z,11.63
2019-04-06T11:40:56.356Z,16.40
2019-04-06T11:43:25.298Z,12.50
2019-04-06T11:46:03.331Z,14.45
2019-04-06T11:48:48.602Z,12.03
2019-04-06T11:51:20.320Z,12.60
2019-04-06T11:53:49.313Z,11.43
2019-04-06T11:56:24.032Z,16.37
2019-04-06T11:59:09.245Z,13.98
2019-04-06T12:01:47.106Z,11.68
2019-04-06T12:04:16.044Z,10.78
2019-04-06T12:06:54.154Z,11.63
2019-04-06T12:09:23.100Z,10.65
2019-04-06T12:11:54.738Z,12.50
2019-04-06T12:14:23.707Z,10.08
2019-04-06T12:16:52.648Z,13.15
2019-04-06T12:19:27.431Z,10.00
2019-04-06T12:22:05.285Z,11.50
2019-04-06T12:24:50.720Z,18.62
2019-04-06T12:27:35.765Z,10.48
2019-04-06T12:30:23.361Z,8.50
2019-04-06T12:33:08.410Z,10.93
2019-04-06T12:35:37.334Z,9.03
2019-04-06T12:38:06.367Z,10.03
2019-04-06T12:40:53.131Z,9.67
2019-04-06T12:43:31.954Z,9.73
2019-04-06T12:46:17.188Z,9.87
2019-04-06T12:49:02.300Z,9.37
2019-04-06T12:51:47.460Z,9.33
2019-04-06T12:54:28.310Z,8.30
2019-04-06T12:56:57.398Z,10.60
2019-04-06T12:59:26.649Z,10.10
2019-04-06T13:02:13.808Z,11.20
2019-04-06T13:04:58.849Z,10.30
2019-04-06T13:07:27.937Z,10.63
2019-04-06T13:10:02.630Z,11.68
2019-04-06T13:12:40.595Z,10.65
2019-04-06T13:15:25.602Z,11.60
2019-04-06T13:17:55.177Z,9.55
2019-04-06T13:20:36.430Z,10.53
2019-04-06T13:23:08.771Z,13.08
2019-04-06T13:25:37.710Z,12.35
2019-04-06T13:28:06.646Z,8.70
2019-04-06T13:30:35.607Z,9.23
2019-04-06T13:33:16.245Z,10.37
2019-04-06T13:35:50.885Z,11.80
2019-04-06T13:38:25.822Z,9.00
2019-04-06T13:41:10.392Z,9.90
2019-04-06T13:43:48.406Z,18.30
2019-04-06T13:46:29.297Z,9.47
2019-04-06T13:49:01.301Z,10.10
2019-04-06T13:51:42.327Z,9.40
2019-04-06T13:57:05.036Z,8.97
2019-04-06T13:59:34.237Z,10.30
2019-04-06T14:02:19.525Z,9.63
2019-04-06T14:04:48.895Z,9.80
2019-04-06T14:07:34.257Z,10.33
2019-04-06T14:10:19.819Z,12.10
2019-04-06T14:13:05.139Z,9.17
2019-04-06T14:15:40.083Z,11.33
2019-04-06T14:57:03.885Z,9.23
2019-04-06T14:59:44.549Z,12.70
2019-04-06T15:02:22.611Z,10.37
2019-04-06T15:05:03.910Z,12.50
2019-04-06T15:17:55.481Z,8.67
2019-04-06T15:20:39.455Z,25.80
2019-04-06T15:23:24.710Z,9.60
2019-04-06T15:25:53.624Z,8.07
2019-04-06T15:28:22.569Z,8.37
2019-04-06T15:31:03.381Z,9.53
2019-04-06T15:33:38.252Z,8.57
2019-04-06T15:36:12.981Z,7.97
2019-04-06T15:38:41.975Z,9.03
2019-04-06T15:41:11.187Z,9.47
2019-04-06T16:45:54.893Z,11.22
2019-04-06T16:48:38.978Z,11.63
2019-04-06T16:51:19.820Z,10.85
2019-04-06T16:56:34.264Z,11.57
2019-04-06T16:59:03.389Z,11.38
2019-04-06T17:01:44.489Z,11.15
2019-04-06T22:53:53.684Z,11.05
2019-04-06T22:56:21.428Z,10.85
2019-04-06T22:58:49.334Z,12.45
2019-04-06T23:06:42.548Z,11.80
